Time;durP1;ratioP1;P1;durP2;ratioP2;P2;SDS_P1;SDS_P2;PMS_P1;PMS_P2;Temp;Humidity;BMP_temperature;BMP_pressure;BME280_temperature;BME280_humidity;BME280_pressure;Samples;Min_cycle;Max_cycle;Signal;HPM_P1;HPM_P2
2024/02/07 00:02:38;;;;;;;8.25;4.57;;;11.50;99.90;;;;;;10432172;28;20216;-61
2024/02/07 00:07:44;;;;;;;9.20;4.45;;;11.50;99.90;;;;;;10422765;28;20274;-62
2024/02/07 00:12:49;;;;;;;7.38;4.43;;;11.50;99.90;;;;;;10434068;28;20246;-63
2024/02/07 00:17:53;;;;;;;9.80;5.15;;;11.40;99.90;;;;;;10430461;28;20301;-61
2024/02/07 00:22:57;;;;;;;10.50;5.03;;;11.40;99.90;;;;;;10432320;28;20216;-62
2024/02/07 00:28:02;;;;;;;9.13;4.90;;;11.40;99.90;;;;;;10444988;28;20237;-62
2024/02/07 00:33:06;;;;;;;11.20;5.72;;;11.40;99.90;;;;;;10437006;28;20292;-62
2024/02/07 00:38:09;;;;;;;14.60;5.35;;;11.40;99.90;;;;;;10438893;28;20634;-61
2024/02/07 00:43:15;;;;;;;6.63;5.00;;;11.40;99.90;;;;;;10440164;28;20247;-62
2024/02/07 00:48:19;;;;;;;7.45;4.93;;;11.40;99.90;;;;;;10436060;28;20192;-60
2024/02/07 00:53:23;;;;;;;9.63;4.47;;;11.30;99.90;;;;;;10433890;28;20647;-62
2024/02/07 00:58:28;;;;;;;9.30;5.25;;;11.30;99.90;;;;;;10437620;28;20244;-62
2024/02/07 01:03:32;;;;;;;11.02;5.00;;;11.40;99.90;;;;;;10441981;28;20247;-62
2024/02/07 01:08:35;;;;;;;9.07;5.32;;;11.40;99.90;;;;;;10429449;28;20231;-62
2024/02/07 01:13:40;;;;;;;6.88;4.32;;;11.40;99.90;;;;;;10432739;28;20255;-62
2024/02/07 01:18:44;;;;;;;7.57;5.00;;;11.40;99.90;;;;;;10436178;28;20247;-61
2024/02/07 01:23:48;;;;;;;9.38;4.65;;;11.40;99.90;;;;;;10437423;28;20219;-61
2024/02/07 01:28:53;;;;;;;9.27;5.32;;;11.40;99.90;;;;;;10432219;28;20238;-61
2024/02/07 01:33:56;;;;;;;7.13;3.90;;;11.50;99.90;;;;;;10434920;28;20224;-61
2024/02/07 01:39:04;;;;;;;7.97;4.28;;;11.40;99.90;;;;;;10432862;28;20286;-62
2024/02/07 01:44:09;;;;;;;5.90;4.28;;;11.50;99.90;;;;;;10435879;28;20707;-62
2024/02/07 01:49:14;;;;;;;7.65;4.38;;;11.50;99.90;;;;;;10433467;28;20223;-59
2024/02/07 01:54:18;;;;;;;6.25;4.45;;;11.50;99.90;;;;;;10435761;28;20271;-61
2024/02/07 01:59:24;;;;;;;7.63;3.97;;;11.50;99.90;;;;;;10436241;28;20304;-62
2024/02/07 02:04:29;;;;;;;6.00;4.20;;;11.50;99.90;;;;;;10436180;28;20219;-61
2024/02/07 02:09:32;;;;;;;5.85;3.97;;;11.50;99.90;;;;;;10436122;28;20227;-61
2024/02/07 02:14:38;;;;;;;6.65;4.15;;;11.50;99.90;;;;;;10436592;28;20250;-61
2024/02/07 02:19:41;;;;;;;4.60;3.63;;;11.50;99.90;;;;;;10431520;28;20366;-61
2024/02/07 02:25:05;;;;;;;5.35;2.85;;;11.50;99.90;;;;;;10432033;28;20223;-62
2024/02/07 02:30:19;;;;;;;3.00;1.80;;;11.40;99.90;;;;;;10437190;28;20249;-60
2024/02/07 02:35:23;;;;;;;4.32;2.40;;;11.00;99.90;;;;;;10432300;28;20232;-62
2024/02/07 02:40:29;;;;;;;5.07;1.83;;;10.70;99.90;;;;;;10435216;28;20308;-61
2024/02/07 02:45:34;;;;;;;5.18;2.05;;;10.60;99.90;;;;;;10429504;28;20224;-62
2024/02/07 02:50:39;;;;;;;3.78;1.20;;;10.30;99.90;;;;;;10435597;28;20639;-63
2024/02/07 02:55:43;;;;;;;8.45;2.67;;;10.00;99.90;;;;;;10436172;28;20227;-61
2024/02/07 03:00:50;;;;;;;1.10;0.65;;;9.80;99.90;;;;;;10434332;28;20255;-61
2024/02/07 03:05:58;;;;;;;8.75;3.03;;;9.70;99.90;;;;;;10427379;28;20228;-61
2024/02/07 03:11:03;;;;;;;5.70;1.85;;;9.60;99.90;;;;;;10435232;28;20659;-62
2024/02/07 03:16:11;;;;;;;7.57;2.90;;;9.50;99.90;;;;;;10428065;28;20292;-60
2024/02/07 03:21:15;;;;;;;5.05;1.30;;;9.40;99.90;;;;;;10432828;28;20705;-63
2024/02/07 03:26:19;;;;;;;4.50;1.33;;;9.20;99.90;;;;;;10429207;28;20282;-62
2024/02/07 03:31:24;;;;;;;8.40;2.00;;;9.20;99.90;;;;;;10429895;28;20268;-62
2024/02/07 03:36:28;;;;;;;3.72;0.88;;;9.10;99.90;;;;;;10424191;28;20228;-59
2024/02/07 03:41:32;;;;;;;4.40;0.93;;;9.00;99.90;;;;;;10427434;28;20200;-62
2024/02/07 03:46:37;;;;;;;5.07;1.10;;;8.90;99.90;;;;;;10432154;28;20596;-60
2024/02/07 03:51:41;;;;;;;2.03;0.93;;;8.90;99.90;;;;;;10427447;28;20695;-61
2024/02/07 03:56:44;;;;;;;2.93;1.27;;;8.90;99.90;;;;;;10438944;28;20815;-61
2024/02/07 04:01:49;;;;;;;3.60;1.30;;;8.80;99.90;;;;;;10442394;28;20234;-62
2024/02/07 04:06:53;;;;;;;3.10;0.90;;;8.70;99.90;;;;;;10436798;28;20251;-61
2024/02/07 05:15:57;;;;;;;2.60;1.20;;;8.40;99.90;;;;;;10441712;28;20266;-65
2024/02/07 05:21:02;;;;;;;3.77;1.03;;;8.30;99.90;;;;;;10448503;28;20253;-65
2024/02/07 05:26:06;;;;;;;3.20;1.17;;;8.30;99.90;;;;;;10447175;28;20722;-65
2024/02/07 05:31:10;;;;;;;2.50;0.70;;;8.30;99.90;;;;;;10449395;28;20732;-64
2024/02/07 05:36:16;;;;;;;3.63;0.93;;;8.20;99.90;;;;;;10434312;28;20257;-65
2024/02/07 05:41:19;;;;;;;1.87;0.63;;;8.20;99.90;;;;;;10435155;28;20220;-64
2024/02/07 05:46:23;;;;;;;4.60;0.90;;;8.10;99.90;;;;;;10437232;28;20698;-65
2024/02/07 05:51:28;;;;;;;2.87;0.80;;;8.00;99.90;;;;;;10446149;28;20207;-64
2024/02/07 05:56:32;;;;;;;3.27;0.70;;;7.90;99.50;;;;;;10447989;28;20464;-64
2024/02/07 06:01:35;;;;;;;2.40;0.90;;;7.80;99.20;;;;;;10440524;28;20259;-64
2024/02/07 06:06:41;;;;;;;2.57;0.80;;;7.70;99.00;;;;;;10438130;28;20573;-65
2024/02/07 06:11:45;;;;;;;2.60;0.70;;;7.70;98.90;;;;;;10427494;28;20567;-65
2024/02/07 06:16:49;;;;;;;3.77;0.67;;;7.60;98.70;;;;;;10433219;28;20285;-64
2024/02/07 06:21:54;;;;;;;2.27;0.80;;;7.50;98.80;;;;;;10428158;28;20224;-64
2024/02/07 06:26:57;;;;;;;2.27;0.70;;;7.50;99.70;;;;;;10426463;28;20350;-65
2024/02/07 06:32:01;;;;;;;1.33;0.63;;;7.50;98.70;;;;;;10424992;28;20277;-64
2024/02/07 06:37:06;;;;;;;3.07;0.70;;;7.50;98.60;;;;;;10423553;28;20784;-65
2024/02/07 06:42:10;;;;;;;1.87;0.80;;;7.40;98.80;;;;;;10424199;28;20266;-64
2024/02/07 06:47:13;;;;;;;2.20;0.67;;;7.40;98.70;;;;;;10426593;28;20253;-64
2024/02/07 06:52:18;;;;;;;1.60;0.80;;;7.30;98.80;;;;;;10423102;28;20328;-64
2024/02/07 06:57:22;;;;;;;3.17;1.10;;;7.30;98.60;;;;;;10424447;28;20203;-63
2024/02/07 07:02:26;;;;;;;1.50;0.90;;;7.30;98.80;;;;;;10428634;28;20690;-64
2024/02/07 07:07:31;;;;;;;1.93;1.10;;;7.20;98.70;;;;;;10422402;28;20250;-65
2024/02/07 07:12:34;;;;;;;2.30;1.00;;;7.20;99.20;;;;;;10425086;28;20199;-64
2024/02/07 07:17:38;;;;;;;3.13;1.00;;;7.20;98.80;;;;;;10427194;28;20712;-64
2024/02/07 07:22:43;;;;;;;2.80;1.17;;;7.20;98.80;;;;;;10431485;28;20247;-64
2024/02/07 07:27:55;;;;;;;1.80;1.20;;;7.20;98.90;;;;;;10426765;28;20551;-64
2024/02/07 07:32:58;;;;;;;4.03;1.65;;;7.20;98.50;;;;;;10422075;28;20441;-69
2024/02/07 07:38:04;;;;;;;3.30;1.70;;;7.20;98.40;;;;;;10425048;28;20294;-67
2024/02/07 07:43:08;;;;;;;4.47;1.90;;;7.10;98.20;;;;;;10418501;28;20273;-66
2024/02/07 07:48:12;;;;;;;3.80;2.27;;;7.10;98.60;;;;;;10427594;28;20195;-67
2024/02/07 07:53:17;;;;;;;3.20;1.90;;;7.20;98.80;;;;;;10429974;28;20223;-66
2024/02/07 07:58:22;;;;;;;2.73;2.30;;;7.20;99.20;;;;;;10410187;28;20227;-66
2024/02/07 08:03:34;;;;;;;3.67;3.00;;;7.20;98.60;;;;;;10421446;28;20634;-65
2024/02/07 08:08:39;;;;;;;4.90;2.77;;;7.30;98.60;;;;;;10427339;28;20666;-65
2024/02/07 08:13:42;;;;;;;4.20;3.20;;;7.20;98.40;;;;;;10425710;28;20220;-67
2024/02/07 08:18:46;;;;;;;5.03;2.60;;;7.20;98.50;;;;;;10426166;28;20250;-67
2024/02/07 08:23:54;;;;;;;3.67;2.50;;;7.20;98.40;;;;;;10427222;28;20686;-63
2024/02/07 08:28:58;;;;;;;4.20;2.30;;;7.30;98.40;;;;;;10424133;28;20729;-64
2024/02/07 08:34:01;;;;;;;5.03;2.40;;;7.30;98.50;;;;;;10425844;28;20283;-64
2024/02/07 08:39:06;;;;;;;6.27;2.87;;;7.30;98.40;;;;;;10427374;28;20212;-64
2024/02/07 08:44:10;;;;;;;4.73;3.57;;;7.30;98.60;;;;;;10436562;28;20216;-64
2024/02/07 08:49:16;;;;;;;5.37;4.00;;;7.40;98.70;;;;;;10425323;28;20193;-64
2024/02/07 08:54:21;;;;;;;5.80;4.83;;;7.40;98.70;;;;;;10427730;28;20232;-64
2024/02/07 08:59:25;;;;;;;9.97;5.40;;;7.40;98.80;;;;;;10425223;28;20215;-64
2024/02/07 09:04:29;;;;;;;8.70;4.97;;;7.30;98.60;;;;;;10418520;28;20328;-64
2024/02/07 09:09:34;;;;;;;7.70;5.30;;;7.30;99.20;;;;;;10420370;28;20230;-65
2024/02/07 09:14:38;;;;;;;7.30;5.43;;;7.30;99.00;;;;;;10432656;28;20223;-65
2024/02/07 09:19:41;;;;;;;6.77;4.80;;;7.40;99.30;;;;;;10440038;28;20228;-64
2024/02/07 09:24:46;;;;;;;15.07;7.27;;;7.40;99.20;;;;;;10445126;28;20245;-65
2024/02/07 09:29:50;;;;;;;14.70;9.03;;;7.40;98.90;;;;;;10430639;28;20249;-63
2024/02/07 09:35:10;;;;;;;7.80;5.67;;;7.40;98.90;;;;;;10436145;28;20230;-63
2024/02/07 09:40:15;;;;;;;6.90;4.30;;;7.40;99.20;;;;;;10429191;28;20243;-64
2024/02/07 09:45:21;;;;;;;9.10;4.00;;;7.40;98.90;;;;;;10434627;28;20219;-65
2024/02/07 09:50:25;;;;;;;5.80;4.00;;;7.50;98.90;;;;;;10434057;28;20554;-66
2024/02/07 09:55:31;;;;;;;8.50;4.10;;;7.50;98.90;;;;;;10435884;28;20219;-66
2024/02/07 10:00:35;;;;;;;7.33;4.40;;;7.50;98.80;;;;;;10425828;28;20316;-66
2024/02/07 10:05:40;;;;;;;6.63;4.30;;;7.60;98.90;;;;;;10430971;28;20239;-65
2024/02/07 10:10:47;;;;;;;6.40;4.03;;;7.60;98.90;;;;;;10428950;28;20666;-64
2024/02/07 10:15:52;;;;;;;7.50;4.53;;;7.60;98.70;;;;;;10436667;28;20273;-63
2024/02/07 10:20:57;;;;;;;7.77;5.13;;;7.60;99.00;;;;;;10433408;28;20583;-64
2024/02/07 10:26:02;;;;;;;7.37;5.17;;;7.70;98.80;;;;;;10426479;28;20352;-64
2024/02/07 10:31:06;;;;;;;10.17;5.63;;;7.70;98.80;;;;;;10437335;28;20203;-65
2024/02/07 10:36:11;;;;;;;10.00;6.40;;;7.70;98.80;;;;;;10422263;22;20228;-64
2024/02/07 10:41:17;;;;;;;12.00;6.53;;;7.80;98.70;;;;;;10405882;28;20306;-64
2024/02/07 10:46:21;;;;;;;9.40;6.80;;;7.70;98.60;;;;;;10400711;28;20232;-64
2024/02/07 10:51:30;;;;;;;9.97;7.73;;;7.70;98.60;;;;;;10378412;28;20220;-65
2024/02/07 10:56:37;;;;;;;13.53;8.50;;;7.70;98.50;;;;;;10388462;28;20244;-64
2024/02/07 11:01:41;;;;;;;12.67;8.10;;;7.70;98.60;;;;;;10388356;28;20224;-64
2024/02/07 11:06:46;;;;;;;12.77;8.17;;;7.80;98.60;;;;;;10388864;28;20225;-64
2024/02/07 11:11:51;;;;;;;14.67;7.93;;;7.80;98.70;;;;;;10391161;28;20200;-65
2024/02/07 11:16:55;;;;;;;10.90;8.23;;;7.80;98.70;;;;;;10383500;28;20355;-65
2024/02/07 11:22:00;;;;;;;18.03;9.93;;;7.90;98.70;;;;;;10386019;28;20315;-65
2024/02/07 11:27:06;;;;;;;18.77;9.03;;;8.00;98.60;;;;;;10385986;28;20286;-64
2024/02/07 11:32:10;;;;;;;12.83;8.40;;;8.10;98.50;;;;;;10388135;28;20233;-65
2024/02/07 11:37:14;;;;;;;14.90;8.33;;;8.10;98.30;;;;;;10377597;28;20223;-65
2024/02/07 11:42:20;;;;;;;14.43;8.50;;;8.10;98.30;;;;;;10390448;28;20223;-64
2024/02/07 11:47:24;;;;;;;15.20;9.60;;;8.10;98.30;;;;;;10381641;28;20618;-65
2024/02/07 11:52:29;;;;;;;19.90;10.57;;;8.00;98.20;;;;;;10383807;28;20231;-66
2024/02/07 11:57:35;;;;;;;18.40;11.07;;;8.10;98.40;;;;;;10388171;28;20223;-65
2024/02/07 12:02:38;;;;;;;15.93;10.20;;;8.10;98.20;;;;;;10377293;28;20321;-65
2024/02/07 12:07:42;;;;;;;16.30;10.13;;;8.10;98.10;;;;;;10382310;28;20368;-66
2024/02/07 12:12:49;;;;;;;15.23;10.20;;;8.10;98.10;;;;;;10375379;28;20737;-65
2024/02/07 12:17:55;;;;;;;16.53;10.00;;;8.20;98.10;;;;;;10395692;28;20192;-66
2024/02/07 12:22:59;;;;;;;18.83;10.23;;;8.20;97.90;;;;;;10391457;28;20248;-67
2024/02/07 12:28:11;;;;;;;14.17;10.00;;;8.20;97.80;;;;;;10404191;28;20208;-65
2024/02/07 12:33:15;;;;;;;18.70;11.47;;;8.30;97.80;;;;;;10394160;28;20270;-65
2024/02/07 12:38:19;;;;;;;14.93;9.77;;;8.30;97.80;;;;;;10398242;28;20273;-64
2024/02/07 12:43:25;;;;;;;20.83;10.27;;;8.30;97.70;;;;;;10389374;28;20303;-64
2024/02/07 12:48:29;;;;;;;16.47;10.53;;;8.40;97.80;;;;;;10395154;28;20212;-64
2024/02/07 12:53:34;;;;;;;19.60;11.30;;;8.40;97.60;;;;;;10396671;28;20216;-64
2024/02/07 12:58:44;;;;;;;15.80;10.23;;;8.50;97.80;;;;;;10388327;28;20227;-65
2024/02/07 13:03:48;;;;;;;16.97;9.60;;;8.50;97.60;;;;;;10387223;28;20693;-65
2024/02/07 13:08:52;;;;;;;14.97;8.50;;;8.60;97.60;;;;;;10391068;28;20230;-64
2024/02/07 13:13:57;;;;;;;19.17;8.50;;;8.70;97.50;;;;;;10393613;28;20256;-64
2024/02/07 13:19:00;;;;;;;16.47;9.17;;;8.70;97.40;;;;;;10397109;28;20232;-70
2024/02/07 13:24:05;;;;;;;18.07;10.87;;;8.70;97.30;;;;;;10390003;28;20718;-66
2024/02/07 13:29:10;;;;;;;21.43;9.70;;;8.80;97.30;;;;;;10397151;28;20222;-71
2024/02/07 13:34:15;;;;;;;18.23;10.60;;;8.80;96.90;;;;;;10394192;28;20263;-66
2024/02/07 13:39:19;;;;;;;18.73;10.20;;;8.80;97.30;;;;;;10396700;28;20223;-65
2024/02/07 13:44:24;;;;;;;20.37;10.43;;;8.90;97.10;;;;;;10391512;28;20248;-64
2024/02/07 13:49:27;;;;;;;20.30;10.40;;;8.90;96.90;;;;;;10392158;28;20671;-65
2024/02/07 13:54:32;;;;;;;18.50;11.13;;;8.90;96.80;;;;;;10394674;28;20220;-65
2024/02/07 13:59:37;;;;;;;18.50;10.27;;;8.90;96.60;;;;;;10403860;28;20224;-65
2024/02/07 14:04:40;;;;;;;19.63;10.00;;;8.90;96.70;;;;;;10386498;28;20325;-67
2024/02/07 14:09:44;;;;;;;18.90;9.23;;;8.90;96.50;;;;;;10394325;28;20189;-66
2024/02/07 14:14:49;;;;;;;17.73;9.73;;;8.90;96.20;;;;;;10394144;28;20270;-67
2024/02/07 14:19:52;;;;;;;23.13;10.23;;;8.90;96.40;;;;;;10400027;28;20231;-66
2024/02/07 14:24:56;;;;;;;25.20;8.73;;;8.90;96.30;;;;;;10380479;28;20224;-66
2024/02/07 14:30:01;;;;;;;14.13;8.90;;;9.00;96.10;;;;;;10395531;28;20251;-66
2024/02/07 14:35:06;;;;;;;18.67;8.17;;;9.00;96.10;;;;;;10396434;28;20220;-67
2024/02/07 14:40:10;;;;;;;15.40;8.13;;;9.00;96.20;;;;;;10393931;28;20667;-67
2024/02/07 14:45:15;;;;;;;18.60;8.57;;;9.00;95.60;;;;;;10387664;28;20631;-67
2024/02/07 14:50:19;;;;;;;21.42;8.43;;;9.00;95.60;;;;;;10392608;28;20756;-66
2024/02/07 14:55:23;;;;;;;14.30;6.70;;;9.00;95.50;;;;;;10385235;28;20328;-67
2024/02/07 15:00:28;;;;;;;16.53;6.73;;;9.00;95.30;;;;;;10388819;28;20287;-66
2024/02/07 15:05:31;;;;;;;16.40;7.40;;;9.00;95.50;;;;;;10395486;28;20278;-66
2024/02/07 15:10:35;;;;;;;20.90;8.07;;;8.90;95.30;;;;;;10394417;28;20568;-66
2024/02/07 15:15:40;;;;;;;17.97;8.17;;;8.90;95.60;;;;;;10394740;28;20270;-66
2024/02/07 15:20:45;;;;;;;19.63;6.37;;;8.90;95.30;;;;;;10402043;28;20586;-65
2024/02/07 15:25:50;;;;;;;13.60;6.27;;;8.90;95.50;;;;;;10395793;28;20314;-66
2024/02/07 15:30:56;;;;;;;19.23;6.73;;;8.90;95.60;;;;;;10396900;28;20213;-66
2024/02/07 15:36:00;;;;;;;15.47;6.60;;;8.90;95.80;;;;;;10395176;28;20224;-65
2024/02/07 15:41:04;;;;;;;17.27;7.43;;;8.80;95.30;;;;;;10394796;28;20660;-64
2024/02/07 15:46:09;;;;;;;17.90;8.40;;;8.80;95.90;;;;;;10399657;28;20289;-64
2024/02/07 15:51:13;;;;;;;13.57;7.77;;;8.70;95.40;;;;;;10403770;28;20197;-67
2024/02/07 15:56:16;;;;;;;17.83;8.37;;;8.70;95.40;;;;;;10397479;28;20576;-67
2024/02/07 16:01:23;;;;;;;16.23;7.60;;;8.60;95.70;;;;;;10404907;28;20231;-66
2024/02/07 16:06:43;;;;;;;19.57;7.53;;;8.60;95.70;;;;;;10402691;28;20259;-67
2024/02/07 16:11:47;;;;;;;15.63;8.07;;;8.60;95.50;;;;;;10403858;28;20227;-66
2024/02/07 16:16:52;;;;;;;19.63;8.17;;;8.50;95.50;;;;;;10399833;28;20219;-67
2024/02/07 16:21:55;;;;;;;15.73;9.40;;;8.50;95.50;;;;;;10400406;28;20247;-63
2024/02/07 16:27:00;;;;;;;18.23;7.70;;;8.50;95.80;;;;;;10405140;28;20224;-64
2024/02/07 16:32:05;;;;;;;18.50;8.83;;;8.50;96.00;;;;;;10393273;28;20707;-66
2024/02/07 16:37:09;;;;;;;16.43;8.47;;;8.40;95.80;;;;;;10415558;22;20262;-62
2024/02/07 16:42:12;;;;;;;21.20;8.93;;;8.40;95.90;;;;;;10406006;28;20614;-63
2024/02/07 16:47:17;;;;;;;19.50;9.47;;;8.40;95.90;;;;;;10404108;28;20220;-61
2024/02/07 16:52:22;;;;;;;17.13;8.67;;;8.30;95.80;;;;;;10402003;28;20227;-63
2024/02/07 16:57:27;;;;;;;24.30;8.97;;;8.30;95.90;;;;;;10397820;28;20351;-61
2024/02/07 17:02:32;;;;;;;24.90;8.87;;;8.30;95.80;;;;;;10402818;28;20252;-62
2024/02/07 17:07:35;;;;;;;16.40;8.80;;;8.20;95.50;;;;;;10398700;28;20239;-64
2024/02/07 17:12:39;;;;;;;22.03;8.80;;;8.20;95.60;;;;;;10399661;28;20262;-61
2024/02/07 17:17:45;;;;;;;18.83;9.30;;;8.20;95.50;;;;;;10404305;28;20246;-63
2024/02/07 17:22:48;;;;;;;20.80;9.20;;;8.20;95.50;;;;;;10402064;28;20247;-61
2024/02/07 17:27:52;;;;;;;20.17;9.70;;;8.10;95.80;;;;;;10395927;28;20225;-63
2024/02/07 17:32:57;;;;;;;20.13;9.80;;;8.10;95.50;;;;;;10400772;28;20201;-62
2024/02/07 17:38:01;;;;;;;24.00;10.87;;;8.10;95.50;;;;;;10396306;28;20591;-63
2024/02/07 17:43:06;;;;;;;19.17;9.87;;;8.10;95.40;;;;;;10398775;28;20527;-62
2024/02/07 17:48:11;;;;;;;23.37;9.47;;;8.10;95.60;;;;;;10405762;28;20651;-64
2024/02/07 17:53:15;;;;;;;18.90;8.83;;;8.10;95.50;;;;;;10398706;28;20196;-63
2024/02/07 17:58:19;;;;;;;16.10;8.87;;;8.10;95.50;;;;;;10403406;28;20313;-62
2024/02/07 18:03:24;;;;;;;18.27;9.13;;;8.10;95.50;;;;;;10395598;28;20216;-63
2024/02/07 18:08:28;;;;;;;28.57;9.80;;;8.10;95.40;;;;;;10398767;28;20212;-63
2024/02/07 18:13:32;;;;;;;24.70;9.53;;;8.10;95.50;;;;;;10391014;28;20254;-64
2024/02/07 18:18:39;;;;;;;20.47;10.07;;;8.10;95.60;;;;;;10393357;28;20735;-63
2024/02/07 18:23:43;;;;;;;29.50;11.57;;;8.10;95.40;;;;;;10397037;28;20313;-63
2024/02/07 18:28:46;;;;;;;22.43;11.03;;;8.00;95.40;;;;;;10391354;28;20278;-64
2024/02/07 18:33:52;;;;;;;26.30;12.40;;;8.00;95.40;;;;;;10400420;28;20315;-63
2024/02/07 18:38:56;;;;;;;27.73;11.60;;;8.00;95.50;;;;;;10398561;28;20200;-63
2024/02/07 18:44:00;;;;;;;24.13;11.80;;;8.00;95.40;;;;;;10403938;28;20227;-65
2024/02/07 18:49:05;;;;;;;29.87;13.17;;;8.00;95.50;;;;;;10401511;28;20193;-63
2024/02/07 18:54:09;;;;;;;28.80;12.53;;;8.00;95.40;;;;;;10408739;28;20220;-64
2024/02/07 18:59:13;;;;;;;28.07;12.93;;;8.00;95.40;;;;;;10413102;28;20246;-64
2024/02/07 19:04:18;;;;;;;27.33;12.13;;;8.00;95.30;;;;;;10411446;28;20281;-63
2024/02/07 19:09:22;;;;;;;28.67;14.50;;;8.00;95.30;;;;;;10403034;28;20204;-64
2024/02/07 19:14:26;;;;;;;25.43;13.17;;;8.00;95.60;;;;;;10403489;28;20220;-63
2024/02/07 19:19:31;;;;;;;25.33;13.40;;;8.00;95.20;;;;;;10395413;28;20548;-65
2024/02/07 19:24:36;;;;;;;27.40;12.70;;;8.00;95.20;;;;;;10397330;28;20282;-64
2024/02/07 19:29:39;;;;;;;25.63;11.47;;;8.00;95.20;;;;;;10413219;28;20200;-66
2024/02/07 19:34:45;;;;;;;23.80;11.50;;;8.00;95.20;;;;;;10402564;28;20278;-64
2024/02/07 19:39:49;;;;;;;24.77;11.37;;;8.00;95.00;;;;;;10374390;28;20205;-65
2024/02/07 19:44:52;;;;;;;21.17;10.70;;;7.90;95.10;;;;;;10371624;28;20716;-65
2024/02/07 19:49:57;;;;;;;22.10;10.23;;;7.90;95.10;;;;;;10398417;28;20212;-62
2024/02/07 19:55:01;;;;;;;23.93;11.60;;;7.90;94.80;;;;;;10411685;28;20212;-65
2024/02/07 20:00:06;;;;;;;25.27;12.17;;;7.90;95.00;;;;;;10407254;28;20200;-65
2024/02/07 20:05:12;;;;;;;20.20;11.07;;;7.80;94.90;;;;;;10388066;28;20280;-64
2024/02/07 20:10:16;;;;;;;22.83;10.43;;;7.80;95.30;;;;;;10389053;28;20259;-64
2024/02/07 20:15:20;;;;;;;24.63;11.60;;;7.80;94.90;;;;;;10391541;28;20443;-65
2024/02/07 20:20:25;;;;;;;21.50;11.40;;;7.70;94.90;;;;;;10394946;28;20267;-62
2024/02/07 20:25:29;;;;;;;24.90;10.40;;;7.70;94.80;;;;;;10399891;28;20298;-63
2024/02/07 20:30:32;;;;;;;21.33;10.87;;;7.70;94.90;;;;;;10386972;28;20749;-64
2024/02/07 20:35:38;;;;;;;22.77;10.83;;;7.60;95.00;;;;;;10401075;28;20322;-63
2024/02/07 20:40:41;;;;;;;24.87;10.50;;;7.50;95.00;;;;;;10394042;28;20636;-65
2024/02/07 20:45:45;;;;;;;21.27;11.33;;;7.50;95.00;;;;;;10395480;28;20727;-60
2024/02/07 20:50:52;;;;;;;23.87;12.90;;;7.50;95.00;;;;;;10394394;28;20208;-61
2024/02/07 20:55:56;;;;;;;18.97;11.40;;;7.40;95.00;;;;;;10396619;28;20244;-62
2024/02/07 21:00:59;;;;;;;23.07;11.20;;;7.40;95.10;;;;;;10398823;28;20235;-62
2024/02/07 21:06:05;;;;;;;23.17;10.83;;;7.30;95.10;;;;;;10405549;28;20641;-63
2024/02/07 21:11:09;;;;;;;22.07;11.10;;;7.30;95.10;;;;;;10405893;28;20205;-64
2024/02/07 21:16:12;;;;;;;21.70;11.27;;;7.20;95.10;;;;;;10398831;28;20221;-64
2024/02/07 21:21:18;;;;;;;24.37;11.90;;;7.20;95.10;;;;;;10405564;28;20265;-64
2024/02/07 21:26:21;;;;;;;26.23;13.30;;;7.10;95.10;;;;;;10409548;28;20262;-64
2024/02/07 21:31:25;;;;;;;28.73;14.63;;;7.10;95.50;;;;;;10407781;28;20196;-64
2024/02/07 21:36:30;;;;;;;25.87;14.47;;;7.00;95.10;;;;;;10406072;28;20282;-63
2024/02/07 21:41:34;;;;;;;25.23;13.17;;;7.00;95.20;;;;;;10407292;28;20235;-64
2024/02/07 21:46:37;;;;;;;27.17;13.63;;;6.90;95.10;;;;;;10407389;28;20289;-64
2024/02/07 21:51:43;;;;;;;25.70;15.13;;;6.90;95.20;;;;;;10407326;28;20595;-65
2024/02/07 21:56:46;;;;;;;28.53;15.07;;;6.80;95.20;;;;;;10398851;28;20278;-66
2024/02/07 22:01:51;;;;;;;26.20;14.30;;;6.80;95.20;;;;;;10397121;28;20752;-66
2024/02/07 22:06:57;;;;;;;30.10;13.47;;;6.80;95.30;;;;;;10405545;28;20240;-67
2024/02/07 22:12:00;;;;;;;22.63;13.10;;;6.80;95.30;;;;;;10409315;28;20666;-65
2024/02/07 22:17:09;;;;;;;24.70;12.97;;;6.70;95.30;;;;;;10405572;28;20244;-66
2024/02/07 22:22:14;;;;;;;27.40;13.37;;;6.60;95.20;;;;;;10414592;28;20619;-68
2024/02/07 22:27:18;;;;;;;27.83;12.83;;;6.60;95.30;;;;;;10406657;28;20310;-66
2024/02/07 22:32:21;;;;;;;28.37;12.73;;;6.60;95.30;;;;;;10405333;28;20215;-64
2024/02/07 22:37:30;;;;;;;26.60;13.43;;;6.60;95.30;;;;;;10396426;28;20683;-67
2024/02/07 22:42:34;;;;;;;22.27;13.47;;;6.50;95.70;;;;;;10404559;28;20208;-67
2024/02/07 22:47:37;;;;;;;26.03;12.80;;;6.50;95.30;;;;;;10409418;28;20286;-66
2024/02/07 22:52:42;;;;;;;32.37;14.47;;;6.50;95.30;;;;;;10451566;22;20689;-67
2024/02/07 22:57:47;;;;;;;24.53;13.87;;;6.50;95.30;;;;;;10444035;28;21133;-67
2024/02/07 23:02:54;;;;;;;27.47;13.53;;;6.40;95.20;;;;;;10398077;28;20268;-68
2024/02/07 23:08:00;;;;;;;26.73;13.20;;;6.30;95.20;;;;;;10388577;28;20267;-68
2024/02/07 23:13:04;;;;;;;23.23;12.50;;;6.30;95.30;;;;;;10395080;28;20784;-69
2024/02/07 23:18:08;;;;;;;20.90;11.50;;;6.30;95.30;;;;;;10403722;28;20196;-67
2024/02/07 23:23:13;;;;;;;24.90;13.23;;;6.30;95.40;;;;;;10397244;28;20871;-67
2024/02/07 23:28:17;;;;;;;24.83;12.77;;;6.30;95.40;;;;;;10396633;28;21028;-67
2024/02/07 23:33:22;;;;;;;21.27;11.83;;;6.30;95.40;;;;;;10391237;28;20235;-67
2024/02/07 23:38:27;;;;;;;24.63;13.17;;;6.20;95.40;;;;;;10396636;28;20634;-67
2024/02/07 23:43:30;;;;;;;21.70;12.77;;;6.30;95.50;;;;;;10400323;28;20662;-67
2024/02/07 23:48:34;;;;;;;27.37;12.90;;;6.30;95.40;;;;;;10394327;28;20294;-67
2024/02/07 23:53:39;;;;;;;23.67;12.20;;;6.20;95.40;;;;;;10391441;28;20234;-67
2024/02/07 23:58:42;;;;;;;18.80;12.03;;;6.20;95.30;;;;;;10396122;28;20701;-67
